Time;durP1;ratioP1;P1;durP2;ratioP2;P2;SDS_P1;SDS_P2;PMS_P1;PMS_P2;Temp;Humidity;BMP_temperature;BMP_pressure;BME280_temperature;BME280_humidity;BME280_pressure;Samples;Min_cycle;Max_cycle;Signal;HPM_P1;HPM_P2
2022/06/30 00:01:32;;;;;;;8.67;7.80;;;25.80;94.30;;;;;;5043837;28;20748;-69
2022/06/30 00:03:58;;;;;;;9.20;8.30;;;25.80;94.30;;;;;;5046578;28;20223;-69
2022/06/30 00:06:24;;;;;;;8.67;7.87;;;25.70;94.30;;;;;;5025777;28;20298;-69
2022/06/30 00:08:50;;;;;;;8.73;7.73;;;25.70;94.30;;;;;;5029209;28;20228;-70
2022/06/30 00:11:16;;;;;;;9.60;8.20;;;25.70;94.40;;;;;;5045522;28;20313;-70
2022/06/30 00:13:42;;;;;;;8.00;7.40;;;25.60;94.30;;;;;;5034340;28;20215;-70
2022/06/30 00:16:09;;;;;;;8.20;7.40;;;25.60;94.50;;;;;;5045343;28;20230;-69
2022/06/30 00:18:35;;;;;;;9.37;8.57;;;25.50;94.60;;;;;;5041940;28;20461;-69
2022/06/30 00:21:02;;;;;;;8.70;8.00;;;25.50;94.60;;;;;;5037198;28;20462;-70
2022/06/30 00:23:28;;;;;;;8.60;7.90;;;25.30;94.60;;;;;;5044272;28;20469;-69
2022/06/30 00:25:53;;;;;;;8.57;7.93;;;25.40;94.50;;;;;;5029426;28;20479;-70
2022/06/30 00:28:19;;;;;;;8.47;7.67;;;25.30;94.60;;;;;;5045466;28;20516;-69
2022/06/30 00:30:50;;;;;;;9.03;8.23;;;25.30;94.70;;;;;;5044219;28;20219;-69
2022/06/30 00:33:16;;;;;;;9.87;8.60;;;25.30;94.70;;;;;;5055595;28;20478;-69
2022/06/30 00:35:43;;;;;;;9.67;8.87;;;25.20;94.70;;;;;;5043493;28;20464;-69
2022/06/30 00:38:08;;;;;;;8.50;7.80;;;25.20;94.70;;;;;;5045504;28;20461;-70
2022/06/30 00:40:35;;;;;;;8.67;7.97;;;25.20;95.10;;;;;;5043036;28;20576;-66
2022/06/30 00:43:01;;;;;;;8.30;7.60;;;25.10;94.80;;;;;;5026936;28;20754;-70
2022/06/30 00:45:27;;;;;;;9.17;8.13;;;25.10;94.80;;;;;;5027304;28;20541;-68
2022/06/30 00:47:53;;;;;;;9.30;8.50;;;25.00;94.80;;;;;;5046628;28;20353;-69
2022/06/30 00:50:18;;;;;;;9.20;8.40;;;25.00;94.80;;;;;;5045815;28;20219;-70
2022/06/30 00:52:46;;;;;;;8.77;7.90;;;25.00;94.90;;;;;;5060111;28;20227;-68
2022/06/30 00:55:15;;;;;;;8.50;7.70;;;25.00;94.90;;;;;;5045076;28;20236;-68
2022/06/30 00:57:41;;;;;;;8.80;8.10;;;24.90;94.90;;;;;;5042680;28;20461;-70
2022/06/30 01:00:08;;;;;;;7.80;7.20;;;24.90;95.00;;;;;;5046625;28;20539;-69
2022/06/30 01:02:34;;;;;;;8.80;8.10;;;24.80;95.10;;;;;;5043104;28;20443;-70
2022/06/30 01:05:00;;;;;;;8.93;8.03;;;24.80;95.10;;;;;;5028708;28;20451;-69
2022/06/30 01:07:28;;;;;;;9.80;8.90;;;24.80;95.10;;;;;;5042111;28;20254;-70
2022/06/30 01:12:44;;;;;;;8.17;7.47;;;24.70;95.10;;;;;;5044223;28;20454;-70
2022/06/30 01:15:18;;;;;;;8.67;7.97;;;24.70;95.10;;;;;;5044791;28;21139;-67
2022/06/30 01:17:45;;;;;;;8.83;7.93;;;24.60;95.20;;;;;;5052666;28;20877;-69
2022/06/30 01:20:12;;;;;;;8.30;7.50;;;24.50;95.40;;;;;;5039059;28;20481;-69
2022/06/30 01:22:38;;;;;;;8.57;7.83;;;24.40;95.40;;;;;;5043786;28;20850;-70
2022/06/30 01:25:06;;;;;;;8.63;7.73;;;24.40;95.40;;;;;;5043680;28;20461;-70
2022/06/30 01:27:32;;;;;;;8.97;8.13;;;24.40;95.40;;;;;;5042057;28;20464;-69
2022/06/30 01:29:58;;;;;;;8.97;8.17;;;24.40;95.40;;;;;;5025158;28;20451;-69
2022/06/30 01:32:25;;;;;;;9.70;8.80;;;24.40;95.40;;;;;;5025297;28;20220;-69
2022/06/30 01:34:51;;;;;;;8.40;7.60;;;24.40;95.50;;;;;;5047017;28;20702;-70
2022/06/30 01:37:17;;;;;;;8.73;7.70;;;24.40;95.50;;;;;;5045057;28;20458;-70
2022/06/30 01:39:43;;;;;;;7.80;7.03;;;24.30;95.50;;;;;;5025968;28;21161;-70
2022/06/30 01:42:09;;;;;;;7.20;6.60;;;24.30;95.60;;;;;;5044824;28;20227;-69
2022/06/30 01:44:34;;;;;;;7.37;6.77;;;24.30;95.70;;;;;;5043069;28;20231;-69
2022/06/30 01:47:00;;;;;;;8.50;7.60;;;24.20;95.80;;;;;;5042907;28;20215;-69
2022/06/30 01:49:26;;;;;;;8.40;6.53;;;24.10;95.90;;;;;;5045045;28;20219;-70
2022/06/30 01:51:52;;;;;;;7.90;7.20;;;24.10;96.10;;;;;;5032340;28;20637;-69
2022/06/30 01:54:17;;;;;;;8.93;7.40;;;24.10;96.10;;;;;;5023435;28;20706;-69
2022/06/30 01:56:43;;;;;;;7.50;6.80;;;24.00;96.30;;;;;;5029728;28;20302;-69
2022/06/30 01:59:09;;;;;;;7.97;7.27;;;23.90;96.10;;;;;;5055511;28;20309;-69
2022/06/30 02:01:35;;;;;;;8.00;7.30;;;23.90;96.40;;;;;;5051070;28;20904;-69
2022/06/30 02:06:46;;;;;;;8.07;7.40;;;23.90;96.30;;;;;;5043005;28;20450;-69
2022/06/30 02:09:11;;;;;;;7.47;6.87;;;23.90;96.30;;;;;;5031790;28;20560;-69
2022/06/30 02:11:37;;;;;;;7.90;7.30;;;23.90;96.30;;;;;;5038279;28;20218;-69
2022/06/30 02:14:03;;;;;;;8.40;7.70;;;23.80;96.20;;;;;;5047908;28;20231;-69
2022/06/30 02:16:30;;;;;;;7.17;6.47;;;23.90;96.40;;;;;;5028291;28;20319;-68
2022/06/30 02:18:56;;;;;;;7.20;6.33;;;23.90;96.30;;;;;;5030740;28;20223;-70
2022/06/30 02:21:22;;;;;;;7.87;7.10;;;23.90;96.30;;;;;;5048230;28;20535;-69
2022/06/30 02:23:47;;;;;;;7.77;7.00;;;23.80;96.30;;;;;;5046234;28;20453;-69
2022/06/30 02:26:13;;;;;;;7.70;7.00;;;23.80;96.20;;;;;;5048703;28;20223;-69
2022/06/30 02:28:39;;;;;;;7.43;6.83;;;23.70;96.40;;;;;;5046578;28;20246;-69
2022/06/30 02:31:04;;;;;;;9.50;8.70;;;23.80;96.40;;;;;;5047505;28;20327;-70
2022/06/30 02:33:30;;;;;;;7.30;6.70;;;23.80;96.30;;;;;;5029764;28;20227;-69
2022/06/30 02:35:56;;;;;;;7.70;6.30;;;23.70;96.30;;;;;;5031741;28;20223;-69
2022/06/30 02:38:21;;;;;;;8.97;6.63;;;23.70;96.20;;;;;;5030337;28;20249;-69
2022/06/30 02:40:47;;;;;;;6.53;6.03;;;23.70;96.30;;;;;;5045793;28;20211;-69
2022/06/30 02:43:13;;;;;;;8.70;6.80;;;23.70;96.30;;;;;;5048002;28;20223;-70
2022/06/30 02:45:38;;;;;;;7.30;6.60;;;23.60;96.20;;;;;;5028778;28;20679;-69
2022/06/30 02:48:04;;;;;;;7.30;6.60;;;23.60;96.30;;;;;;5047696;28;20686;-69
2022/06/30 02:50:30;;;;;;;6.13;5.63;;;23.60;96.30;;;;;;5045055;28;20318;-70
2022/06/30 02:52:57;;;;;;;8.93;8.00;;;23.50;96.30;;;;;;5030995;28;20301;-69
2022/06/30 02:55:23;;;;;;;9.57;6.67;;;23.50;96.40;;;;;;5046746;28;20272;-69
2022/06/30 02:57:49;;;;;;;7.03;6.40;;;23.50;96.40;;;;;;5025352;28;20454;-69
2022/06/30 03:00:15;;;;;;;6.93;6.33;;;23.40;96.40;;;;;;5046435;28;20310;-70
2022/06/30 03:02:41;;;;;;;7.97;7.23;;;23.40;96.40;;;;;;5045402;28;20628;-69
2022/06/30 03:05:09;;;;;;;8.83;6.87;;;23.40;96.40;;;;;;5046792;28;20529;-69
2022/06/30 03:07:34;;;;;;;7.67;6.97;;;23.20;96.90;;;;;;5045635;28;20218;-69
2022/06/30 03:10:00;;;;;;;6.73;6.23;;;23.30;96.50;;;;;;5047043;28;20442;-70
2022/06/30 03:12:26;;;;;;;6.87;6.27;;;23.20;96.50;;;;;;5044806;28;20639;-70
2022/06/30 03:14:51;;;;;;;6.17;5.57;;;23.20;96.60;;;;;;5027074;28;20718;-69
2022/06/30 03:17:17;;;;;;;6.90;6.20;;;23.20;96.60;;;;;;5045059;28;20273;-69
2022/06/30 03:19:43;;;;;;;7.03;6.43;;;23.20;96.50;;;;;;5044522;28;20215;-69
2022/06/30 03:22:08;;;;;;;6.63;6.13;;;23.20;96.50;;;;;;5026260;28;20276;-70
2022/06/30 03:24:34;;;;;;;9.93;6.70;;;23.20;96.50;;;;;;5045179;28;20238;-69
2022/06/30 03:27:00;;;;;;;7.00;6.40;;;23.10;96.60;;;;;;5047162;28;20578;-69
2022/06/30 03:29:25;;;;;;;7.00;5.90;;;23.10;96.70;;;;;;5044697;28;20261;-70
2022/06/30 03:31:51;;;;;;;6.93;6.20;;;23.00;96.60;;;;;;5027048;28;20220;-69
2022/06/30 03:34:17;;;;;;;6.93;6.33;;;23.00;96.70;;;;;;5046836;28;20772;-69
2022/06/30 03:36:42;;;;;;;7.00;6.30;;;22.90;96.90;;;;;;5039198;28;20211;-69
2022/06/30 03:39:08;;;;;;;10.47;6.83;;;22.90;96.90;;;;;;5046868;28;20223;-70
2022/06/30 03:41:34;;;;;;;7.87;6.30;;;22.90;97.00;;;;;;5045209;28;20307;-69
2022/06/30 03:44:00;;;;;;;8.00;6.60;;;22.90;97.20;;;;;;5046082;28;20255;-69
2022/06/30 03:46:25;;;;;;;7.13;6.40;;;22.80;97.10;;;;;;5045350;28;20655;-69
2022/06/30 03:48:51;;;;;;;5.80;5.33;;;22.80;97.30;;;;;;5043674;28;20219;-69
2022/06/30 03:51:17;;;;;;;8.90;6.20;;;22.80;97.20;;;;;;5046217;28;20716;-69
2022/06/30 03:53:43;;;;;;;7.53;5.90;;;22.70;97.20;;;;;;5042140;28;20599;-69
2022/06/30 03:56:08;;;;;;;7.63;6.93;;;22.70;97.40;;;;;;5028116;28;20310;-69
2022/06/30 03:58:34;;;;;;;8.07;7.37;;;22.70;97.50;;;;;;5037828;28;20212;-69
2022/06/30 04:01:00;;;;;;;8.93;6.60;;;22.70;97.40;;;;;;5046458;28;20215;-69
2022/06/30 04:03:26;;;;;;;7.00;6.40;;;22.70;97.30;;;;;;5044495;28;20239;-69
2022/06/30 04:05:52;;;;;;;7.20;6.47;;;22.70;97.50;;;;;;5030005;28;20215;-70
2022/06/30 04:08:18;;;;;;;8.27;6.20;;;22.70;97.40;;;;;;5047552;28;20466;-69
2022/06/30 04:10:43;;;;;;;7.20;6.50;;;22.70;97.40;;;;;;5044512;28;20216;-70
2022/06/30 04:13:09;;;;;;;7.30;6.63;;;22.70;97.40;;;;;;5043685;28;20224;-69
2022/06/30 04:15:35;;;;;;;7.03;6.43;;;22.60;97.50;;;;;;5044656;28;20215;-69
2022/06/30 04:18:01;;;;;;;8.27;6.37;;;22.60;97.50;;;;;;5046293;28;20228;-69
2022/06/30 04:20:27;;;;;;;7.07;6.40;;;22.60;97.40;;;;;;5043661;28;20223;-69
2022/06/30 04:22:53;;;;;;;6.27;5.77;;;22.60;97.50;;;;;;5041505;28;20302;-69
2022/06/30 04:25:20;;;;;;;8.63;7.83;;;22.60;97.60;;;;;;5046137;28;20279;-70
2022/06/30 04:27:56;;;;;;;8.33;6.67;;;22.60;97.50;;;;;;5035596;28;20449;-69
2022/06/30 04:33:07;;;;;;;8.10;7.10;;;22.70;97.70;;;;;;5045098;28;20466;-69
2022/06/30 04:35:33;;;;;;;7.63;6.37;;;22.60;97.60;;;;;;5027054;28;20504;-68
2022/06/30 04:38:00;;;;;;;7.63;6.87;;;22.60;97.80;;;;;;5046074;28;20462;-70
2022/06/30 04:43:13;;;;;;;8.43;6.20;;;22.60;97.90;;;;;;5046424;28;20523;-70
2022/06/30 04:45:39;;;;;;;8.87;6.67;;;22.60;97.90;;;;;;5042035;28;20458;-69
2022/06/30 04:48:05;;;;;;;7.33;6.63;;;22.60;98.10;;;;;;5045745;28;20281;-69
2022/06/30 04:50:31;;;;;;;7.17;6.47;;;22.60;98.10;;;;;;5043732;28;20215;-69
2022/06/30 04:52:57;;;;;;;7.20;6.60;;;22.60;98.80;;;;;;5045137;28;20226;-69
2022/06/30 04:55:22;;;;;;;7.13;6.50;;;22.50;98.80;;;;;;5028612;28;20234;-69
2022/06/30 04:57:48;;;;;;;7.93;7.20;;;22.60;98.60;;;;;;5026851;28;20215;-69
2022/06/30 05:00:14;;;;;;;8.00;6.20;;;22.60;98.40;;;;;;5045108;28;20220;-68
2022/06/30 05:02:40;;;;;;;6.83;6.33;;;22.60;98.50;;;;;;5043459;28;20209;-69
2022/06/30 05:05:06;;;;;;;7.13;5.90;;;22.60;98.50;;;;;;5029216;28;20223;-69
2022/06/30 05:07:32;;;;;;;6.43;5.83;;;22.70;99.10;;;;;;5031651;28;20216;-68
2022/06/30 05:09:58;;;;;;;7.40;5.93;;;22.70;98.90;;;;;;5044844;28;20510;-71
2022/06/30 05:12:24;;;;;;;6.33;5.83;;;22.70;98.90;;;;;;5044205;28;20211;-70
2022/06/30 05:14:49;;;;;;;9.07;6.63;;;22.70;98.50;;;;;;5038152;28;20252;-70
2022/06/30 05:17:15;;;;;;;9.33;7.13;;;22.80;98.70;;;;;;5042873;28;20227;-71
2022/06/30 05:19:41;;;;;;;7.00;6.30;;;22.80;99.00;;;;;;5042988;28;20392;-70
2022/06/30 05:22:07;;;;;;;8.20;7.40;;;22.80;98.90;;;;;;5044423;28;20637;-70
2022/06/30 05:27:17;;;;;;;6.53;6.00;;;22.90;98.90;;;;;;5048863;28;20265;-70
2022/06/30 05:29:43;;;;;;;7.03;6.30;;;23.00;99.10;;;;;;4977050;28;20491;-70
2022/06/30 05:32:09;;;;;;;8.00;7.10;;;23.00;99.40;;;;;;5014068;28;20247;-70
2022/06/30 05:34:35;;;;;;;7.60;6.90;;;23.00;99.70;;;;;;5047469;28;20266;-70
2022/06/30 05:37:01;;;;;;;7.20;6.50;;;23.10;99.70;;;;;;5047688;28;20477;-71
2022/06/30 05:39:28;;;;;;;8.57;6.80;;;23.20;99.70;;;;;;5028540;28;20222;-70
2022/06/30 05:41:54;;;;;;;7.50;6.90;;;23.20;99.80;;;;;;5038579;28;20493;-70
2022/06/30 05:44:19;;;;;;;7.63;6.93;;;23.20;99.90;;;;;;5041056;28;20502;-70
2022/06/30 05:46:45;;;;;;;7.93;7.23;;;23.20;99.80;;;;;;5041845;28;20232;-70
2022/06/30 05:49:11;;;;;;;8.00;6.77;;;23.20;99.70;;;;;;5040563;28;20314;-69
2022/06/30 05:51:37;;;;;;;7.53;6.80;;;23.30;99.90;;;;;;5042107;28;20211;-70
2022/06/30 05:54:03;;;;;;;7.90;7.20;;;23.30;99.60;;;;;;5042410;28;20925;-70
2022/06/30 05:56:28;;;;;;;7.37;6.67;;;23.30;99.60;;;;;;5040803;28;20223;-70
2022/06/30 05:58:54;;;;;;;8.77;6.60;;;23.40;99.90;;;;;;5047833;28;20230;-70
2022/06/30 06:01:20;;;;;;;7.70;7.00;;;23.40;99.90;;;;;;5029050;28;20234;-70
2022/06/30 06:03:46;;;;;;;7.73;7.00;;;23.40;99.90;;;;;;5029207;28;20604;-70
2022/06/30 06:06:12;;;;;;;7.93;7.23;;;23.50;99.90;;;;;;5038186;28;20469;-70
2022/06/30 06:08:38;;;;;;;6.90;6.20;;;23.50;99.90;;;;;;5034428;28;20454;-70
2022/06/30 06:11:03;;;;;;;7.40;6.80;;;23.60;99.90;;;;;;5045634;28;20302;-71
2022/06/30 06:13:29;;;;;;;7.50;6.90;;;23.60;99.90;;;;;;5043534;28;20237;-70
2022/06/30 06:15:55;;;;;;;7.93;7.23;;;23.70;99.90;;;;;;5046887;28;20218;-70
2022/06/30 06:18:21;;;;;;;9.63;8.00;;;23.80;99.90;;;;;;5039446;28;20295;-71
2022/06/30 06:20:47;;;;;;;8.90;8.10;;;23.80;99.90;;;;;;5039059;28;20223;-71
2022/06/30 06:23:13;;;;;;;8.57;7.80;;;23.90;99.90;;;;;;5034829;28;20228;-70
2022/06/30 06:25:38;;;;;;;8.70;7.80;;;23.90;99.90;;;;;;5034678;28;20457;-70
2022/06/30 06:31:09;;;;;;;8.73;8.03;;;24.00;99.90;;;;;;5022177;28;20270;-70
2022/06/30 06:33:35;;;;;;;8.13;7.43;;;24.10;99.90;;;;;;5021449;28;20524;-69
2022/06/30 06:36:02;;;;;;;10.47;9.47;;;24.20;99.90;;;;;;5017605;28;20457;-70
2022/06/30 06:38:28;;;;;;;10.20;9.27;;;24.30;99.90;;;;;;5037260;28;20215;-71
2022/06/30 06:40:53;;;;;;;10.17;9.17;;;24.30;99.90;;;;;;5046757;28;20968;-70
2022/06/30 06:43:19;;;;;;;11.47;9.40;;;24.40;99.90;;;;;;5045012;28;20216;-70
2022/06/30 06:45:45;;;;;;;9.37;8.47;;;24.40;99.90;;;;;;5042726;28;20222;-70
2022/06/30 06:48:10;;;;;;;11.93;10.83;;;24.50;99.90;;;;;;5044761;28;20574;-68
2022/06/30 06:50:36;;;;;;;9.37;8.63;;;24.60;99.90;;;;;;5041049;28;20701;-70
2022/06/30 06:53:03;;;;;;;9.60;8.60;;;24.70;99.90;;;;;;5038100;28;20223;-69
2022/06/30 06:55:30;;;;;;;9.83;8.37;;;24.80;99.90;;;;;;5044082;28;20657;-70
2022/06/30 06:57:55;;;;;;;11.03;9.97;;;24.90;99.90;;;;;;5037664;28;20526;-70
2022/06/30 07:00:21;;;;;;;10.17;9.27;;;25.00;99.90;;;;;;5038686;28;20553;-70
2022/06/30 07:02:47;;;;;;;9.43;8.60;;;25.00;99.90;;;;;;5036285;28;20227;-70
2022/06/30 07:05:12;;;;;;;10.40;9.30;;;25.10;99.90;;;;;;5039498;28;20207;-71
2022/06/30 07:07:38;;;;;;;10.23;9.27;;;25.20;99.90;;;;;;5022754;28;20246;-70
2022/06/30 07:10:05;;;;;;;9.87;8.90;;;25.30;99.90;;;;;;5038611;28;20672;-70
2022/06/30 07:12:32;;;;;;;9.63;8.80;;;25.30;99.90;;;;;;5060307;28;20219;-71
2022/06/30 07:14:57;;;;;;;11.20;10.20;;;25.40;99.90;;;;;;5041924;28;20481;-70
2022/06/30 07:17:23;;;;;;;10.20;9.13;;;25.50;99.90;;;;;;5037960;28;20503;-70
2022/06/30 07:19:49;;;;;;;10.70;9.60;;;25.60;99.90;;;;;;5040873;28;20357;-70
2022/06/30 07:22:16;;;;;;;10.43;9.53;;;25.70;99.90;;;;;;5041106;28;20231;-70
2022/06/30 07:24:43;;;;;;;11.10;10.10;;;25.80;99.90;;;;;;5042538;28;20763;-69
2022/06/30 07:27:08;;;;;;;10.03;9.23;;;25.90;99.90;;;;;;5035646;28;20460;-71
2022/06/30 07:29:35;;;;;;;10.33;9.40;;;25.90;99.90;;;;;;5037056;28;20458;-70
2022/06/30 07:32:00;;;;;;;11.50;10.40;;;26.00;99.90;;;;;;5040881;28;20227;-70
2022/06/30 07:34:26;;;;;;;11.23;9.77;;;26.00;99.90;;;;;;5015929;28;20475;-70
2022/06/30 07:36:52;;;;;;;10.50;9.60;;;26.00;99.90;;;;;;5045329;28;20227;-71
2022/06/30 07:39:18;;;;;;;9.90;9.00;;;26.10;99.90;;;;;;5039441;28;20375;-71
2022/06/30 07:41:43;;;;;;;10.60;9.70;;;26.20;99.90;;;;;;5043449;28;20222;-70
2022/06/30 07:44:09;;;;;;;11.57;10.50;;;26.30;99.90;;;;;;5035710;28;20970;-71
2022/06/30 07:46:35;;;;;;;11.20;10.10;;;26.30;99.90;;;;;;5037027;28;20214;-71
2022/06/30 07:49:01;;;;;;;11.50;10.37;;;26.30;99.90;;;;;;5040679;28;20227;-70
2022/06/30 07:51:27;;;;;;;11.17;10.07;;;26.30;99.90;;;;;;5016550;28;20699;-71
2022/06/30 07:53:52;;;;;;;12.97;9.60;;;26.40;99.90;;;;;;5028049;28;20470;-71
2022/06/30 07:56:18;;;;;;;13.63;9.80;;;26.50;99.90;;;;;;5044865;28;20251;-70
2022/06/30 07:58:44;;;;;;;11.77;10.70;;;26.60;99.90;;;;;;5042519;28;20219;-71
2022/06/30 08:01:09;;;;;;;11.87;10.60;;;26.70;99.90;;;;;;5041849;28;20223;-70
2022/06/30 08:03:35;;;;;;;11.33;10.37;;;26.70;99.90;;;;;;5021365;28;20216;-71
2022/06/30 08:06:01;;;;;;;10.10;9.30;;;26.70;99.90;;;;;;5036134;28;20216;-71
2022/06/30 08:08:27;;;;;;;9.53;8.70;;;26.70;99.90;;;;;;5039006;28;20243;-70
2022/06/30 08:10:53;;;;;;;11.03;10.03;;;26.80;99.90;;;;;;5035795;28;20224;-70
2022/06/30 08:13:19;;;;;;;10.87;9.83;;;27.00;99.90;;;;;;5022563;28;20216;-70
2022/06/30 08:15:45;;;;;;;9.63;8.80;;;27.10;99.90;;;;;;5043676;28;20453;-70
2022/06/30 08:18:10;;;;;;;10.33;9.33;;;27.20;99.90;;;;;;5044677;28;20219;-71
2022/06/30 08:20:37;;;;;;;11.33;10.33;;;27.30;99.90;;;;;;5024818;28;20222;-70
2022/06/30 08:23:03;;;;;;;10.70;9.70;;;27.40;99.90;;;;;;5038073;28;20294;-70
2022/06/30 08:25:29;;;;;;;10.43;9.50;;;27.50;99.90;;;;;;5045563;28;20874;-70
2022/06/30 08:27:54;;;;;;;11.07;10.03;;;27.50;99.90;;;;;;5042885;28;20275;-71
2022/06/30 08:30:20;;;;;;;10.73;9.83;;;27.60;99.90;;;;;;5038602;28;20220;-70
2022/06/30 08:32:46;;;;;;;10.03;9.17;;;27.70;99.90;;;;;;5040339;28;20286;-70
2022/06/30 08:35:13;;;;;;;10.50;9.60;;;27.90;99.90;;;;;;5038892;28;20248;-72
2022/06/30 08:37:39;;;;;;;10.30;9.30;;;27.90;99.90;;;;;;5046540;28;20227;-70
2022/06/30 08:42:50;;;;;;;9.43;8.67;;;28.10;99.90;;;;;;5047167;28;20306;-71
2022/06/30 08:45:17;;;;;;;10.05;9.25;;;28.10;99.90;;;;;;5041008;28;20225;-71
2022/06/30 08:47:46;;;;;;;8.95;8.15;;;28.20;99.90;;;;;;5047983;28;20217;-70
2022/06/30 08:50:14;;;;;;;10.23;8.05;;;28.40;99.90;;;;;;5037721;28;20243;-71
2022/06/30 08:52:53;;;;;;;9.50;8.60;;;28.50;99.20;;;;;;5043612;28;20227;-70
2022/06/30 08:55:25;;;;;;;9.40;8.50;;;28.50;98.90;;;;;;5045611;28;20252;-70
2022/06/30 08:57:54;;;;;;;9.25;8.35;;;28.60;99.40;;;;;;5041470;28;20726;-70
2022/06/30 09:00:20;;;;;;;9.27;8.38;;;28.50;98.70;;;;;;5042410;28;20589;-71
2022/06/30 09:02:46;;;;;;;9.30;8.50;;;28.60;99.00;;;;;;5042001;28;20218;-71
2022/06/30 09:05:13;;;;;;;9.50;8.63;;;28.70;98.90;;;;;;5037942;28;20568;-70
2022/06/30 09:07:39;;;;;;;9.95;9.10;;;28.80;98.80;;;;;;5054168;28;20234;-71
2022/06/30 09:10:05;;;;;;;9.18;8.48;;;28.90;98.60;;;;;;5040185;28;20226;-71
2022/06/30 09:12:31;;;;;;;9.65;8.55;;;28.90;98.30;;;;;;5044004;28;20226;-71
2022/06/30 09:14:57;;;;;;;9.43;8.63;;;28.90;97.70;;;;;;5034261;28;20726;-71
2022/06/30 09:17:25;;;;;;;9.60;7.85;;;29.00;98.10;;;;;;5039278;28;20302;-71
2022/06/30 09:19:58;;;;;;;8.70;8.05;;;29.10;98.20;;;;;;5044161;28;20296;-71
2022/06/30 09:22:35;;;;;;;7.47;6.88;;;29.20;97.70;;;;;;5045734;28;20384;-70
2022/06/30 09:25:12;;;;;;;7.10;6.43;;;29.40;96.50;;;;;;5050931;28;20221;-71
2022/06/30 09:27:40;;;;;;;7.20;6.50;;;29.50;96.50;;;;;;5049243;28;20694;-71
2022/06/30 09:30:07;;;;;;;7.97;7.28;;;29.60;95.90;;;;;;5040581;28;20287;-71
2022/06/30 09:32:48;;;;;;;7.43;6.82;;;29.70;95.90;;;;;;5031965;28;20622;-70
2022/06/30 09:35:15;;;;;;;7.95;7.32;;;29.70;96.00;;;;;;5039000;28;20333;-71
2022/06/30 09:37:41;;;;;;;6.97;6.43;;;29.70;96.00;;;;;;5041762;28;20235;-71
2022/06/30 09:40:08;;;;;;;9.65;6.78;;;29.90;95.10;;;;;;5036381;28;20739;-69
2022/06/30 09:42:39;;;;;;;7.45;6.75;;;30.00;95.20;;;;;;5037043;28;20225;-71
2022/06/30 09:45:07;;;;;;;6.97;6.38;;;30.20;95.50;;;;;;5039128;28;20227;-71
2022/06/30 09:47:33;;;;;;;7.35;6.55;;;30.30;94.20;;;;;;5042340;28;20225;-71
2022/06/30 09:50:07;;;;;;;7.32;6.63;;;30.40;94.00;;;;;;5031963;28;20226;-72
2022/06/30 09:52:33;;;;;;;6.75;6.15;;;30.40;93.10;;;;;;5039275;28;20319;-70
2022/06/30 09:55:01;;;;;;;6.57;6.07;;;30.30;92.60;;;;;;5040287;28;20285;-71
2022/06/30 09:57:45;;;;;;;6.05;5.55;;;30.20;92.50;;;;;;5036191;28;20294;-71
2022/06/30 10:00:16;;;;;;;7.63;6.13;;;30.30;93.00;;;;;;5040046;28;20600;-68
2022/06/30 10:02:47;;;;;;;6.30;5.85;;;30.30;92.00;;;;;;5034208;28;20226;-73
2022/06/30 10:05:15;;;;;;;6.60;5.95;;;30.30;92.10;;;;;;5037376;28;20329;-71
2022/06/30 10:07:41;;;;;;;5.47;4.97;;;30.40;93.10;;;;;;5043329;28;20216;-71
2022/06/30 10:10:08;;;;;;;7.25;6.18;;;30.60;92.40;;;;;;5045206;28;20236;-70
2022/06/30 10:12:34;;;;;;;5.47;5.03;;;30.70;92.30;;;;;;5052602;28;20464;-71
2022/06/30 10:15:01;;;;;;;6.43;5.85;;;30.80;91.70;;;;;;5042753;28;20242;-71
2022/06/30 10:17:30;;;;;;;5.90;5.40;;;30.80;91.30;;;;;;5035928;28;20239;-70
2022/06/30 10:19:56;;;;;;;6.55;5.85;;;30.90;91.90;;;;;;5035140;28;20240;-70
2022/06/30 10:22:25;;;;;;;5.43;5.00;;;31.10;90.80;;;;;;5035209;28;20689;-69
2022/06/30 10:24:54;;;;;;;5.93;5.53;;;31.30;90.00;;;;;;5041438;28;20227;-71
2022/06/30 10:27:21;;;;;;;5.82;5.38;;;31.40;90.20;;;;;;5025254;28;20235;-71
2022/06/30 10:29:56;;;;;;;5.10;4.53;;;31.40;89.60;;;;;;5042538;28;20311;-72
2022/06/30 10:32:50;;;;;;;5.13;4.72;;;31.40;89.70;;;;;;5047193;28;20227;-71
2022/06/30 10:35:35;;;;;;;5.50;5.00;;;31.40;88.00;;;;;;5043048;28;20338;-71
2022/06/30 10:38:10;;;;;;;6.18;5.68;;;31.40;86.80;;;;;;5040812;28;20576;-71
2022/06/30 10:41:03;;;;;;;5.88;5.43;;;31.40;84.70;;;;;;5045615;28;20502;-72
2022/06/30 10:43:29;;;;;;;6.05;5.65;;;31.40;85.00;;;;;;5036492;28;20220;-70
2022/06/30 10:46:06;;;;;;;6.60;5.57;;;31.30;85.30;;;;;;5026892;28;20251;-71
2022/06/30 10:48:53;;;;;;;6.07;5.68;;;31.40;86.10;;;;;;5060044;28;20560;-70
2022/06/30 10:51:19;;;;;;;5.43;5.00;;;31.60;86.20;;;;;;5045741;28;20241;-71
2022/06/30 10:53:45;;;;;;;6.25;5.65;;;31.70;85.00;;;;;;5038175;28;20290;-72
2022/06/30 10:56:11;;;;;;;7.40;5.60;;;31.70;85.50;;;;;;5026274;28;20230;-70
2022/06/30 10:58:37;;;;;;;6.50;6.00;;;31.80;84.60;;;;;;5046170;28;20221;-71
2022/06/30 11:01:05;;;;;;;7.00;6.40;;;31.80;83.60;;;;;;5032826;28;20237;-71
2022/06/30 11:03:32;;;;;;;5.97;5.47;;;31.80;83.70;;;;;;5041934;28;20697;-71
2022/06/30 11:05:59;;;;;;;6.30;5.78;;;31.90;85.10;;;;;;5031290;28;20234;-71
2022/06/30 11:08:50;;;;;;;5.68;5.28;;;31.90;84.00;;;;;;5031834;28;20285;-71
2022/06/30 11:11:25;;;;;;;5.90;5.40;;;31.90;84.20;;;;;;5031311;28;20224;-71
2022/06/30 11:14:02;;;;;;;6.68;6.18;;;32.00;84.60;;;;;;5042591;28;20691;-71
2022/06/30 11:16:33;;;;;;;6.90;6.30;;;32.10;84.60;;;;;;5045838;28;20253;-70
2022/06/30 11:19:00;;;;;;;5.90;5.40;;;32.30;84.90;;;;;;5044395;28;20236;-72
2022/06/30 11:21:30;;;;;;;6.35;5.93;;;32.40;83.70;;;;;;5041565;28;20235;-71
2022/06/30 11:24:00;;;;;;;7.90;5.13;;;32.40;83.70;;;;;;5040487;28;20240;-71
2022/06/30 11:29:17;;;;;;;4.82;4.53;;;32.50;80.50;;;;;;5046078;28;20212;-72
2022/06/30 11:31:43;;;;;;;5.22;4.82;;;32.60;81.10;;;;;;5028467;28;20220;-70
2022/06/30 11:34:15;;;;;;;5.70;5.30;;;32.60;81.10;;;;;;5037427;28;20671;-71
2022/06/30 11:36:44;;;;;;;8.50;5.60;;;32.80;79.90;;;;;;5038886;28;20240;-71
2022/06/30 11:39:20;;;;;;;5.43;5.03;;;33.00;77.10;;;;;;5044813;28;20303;-71
2022/06/30 11:42:03;;;;;;;5.97;5.43;;;33.00;77.60;;;;;;5032833;28;20243;-71
2022/06/30 11:44:38;;;;;;;6.15;5.47;;;33.10;76.30;;;;;;5047664;28;20712;-69
2022/06/30 11:47:05;;;;;;;8.85;6.75;;;33.20;76.30;;;;;;5027095;28;20757;-71
2022/06/30 11:49:54;;;;;;;6.00;5.53;;;33.20;77.20;;;;;;5039479;28;20215;-71
2022/06/30 11:52:21;;;;;;;5.90;5.40;;;33.10;78.00;;;;;;5044134;28;20224;-71
2022/06/30 11:54:50;;;;;;;4.85;4.55;;;33.00;78.40;;;;;;5042240;28;20238;-71
2022/06/30 11:57:17;;;;;;;5.60;4.97;;;33.10;78.10;;;;;;5046625;28;20746;-71
2022/06/30 11:59:48;;;;;;;5.82;5.32;;;33.10;77.80;;;;;;5033335;28;20220;-71
2022/06/30 12:02:14;;;;;;;5.97;5.50;;;33.00;75.20;;;;;;5049345;28;20227;-69
2022/06/30 12:04:43;;;;;;;5.43;4.65;;;32.90;74.60;;;;;;5030404;28;20288;-71
2022/06/30 12:07:12;;;;;;;5.20;4.70;;;33.00;74.50;;;;;;5046751;28;20231;-71
2022/06/30 12:09:38;;;;;;;5.47;5.05;;;33.00;72.30;;;;;;5039128;28;20308;-69
2022/06/30 12:12:04;;;;;;;4.93;4.47;;;33.10;71.10;;;;;;5034080;28;20219;-71
2022/06/30 12:14:36;;;;;;;6.80;4.68;;;33.20;69.90;;;;;;5044714;28;20284;-69
2022/06/30 12:17:07;;;;;;;4.60;4.30;;;33.30;70.10;;;;;;5041504;28;20577;-70
2022/06/30 12:19:33;;;;;;;4.32;4.03;;;33.40;71.10;;;;;;5043587;28;20641;-70
2022/06/30 12:22:02;;;;;;;5.35;4.53;;;33.40;70.80;;;;;;5041640;28;20235;-71
2022/06/30 12:24:28;;;;;;;4.55;4.25;;;33.30;70.20;;;;;;5025602;28;20284;-70
2022/06/30 12:26:57;;;;;;;5.63;5.07;;;33.30;70.90;;;;;;5026568;28;20215;-71
2022/06/30 12:29:26;;;;;;;4.40;4.20;;;33.40;70.20;;;;;;5046685;28;20219;-71
2022/06/30 12:32:13;;;;;;;4.78;4.47;;;33.40;68.30;;;;;;5043427;28;20398;-71
2022/06/30 12:35:09;;;;;;;4.60;4.20;;;33.30;66.70;;;;;;5045457;28;20220;-71
2022/06/30 12:37:41;;;;;;;3.95;3.75;;;33.30;64.60;;;;;;5030365;28;20295;-70
2022/06/30 12:40:13;;;;;;;4.80;4.47;;;33.40;64.50;;;;;;5045068;28;20227;-71
2022/06/30 12:42:49;;;;;;;4.68;4.38;;;33.50;67.20;;;;;;5029846;28;20298;-71
2022/06/30 12:45:35;;;;;;;4.82;3.92;;;33.60;67.20;;;;;;5040795;28;20314;-71
2022/06/30 12:48:06;;;;;;;4.00;3.70;;;33.70;67.20;;;;;;5046241;28;20226;-71
2022/06/30 12:50:37;;;;;;;4.78;4.47;;;33.70;66.60;;;;;;5044689;28;20223;-71
2022/06/30 12:53:35;;;;;;;4.53;4.20;;;33.60;65.80;;;;;;5030305;28;20317;-70
2022/06/30 12:56:13;;;;;;;4.43;4.13;;;33.40;66.10;;;;;;4999699;28;20634;-70
2022/06/30 12:58:52;;;;;;;4.25;3.95;;;33.60;66.50;;;;;;5045899;28;20290;-71
2022/06/30 13:01:25;;;;;;;4.75;4.38;;;33.70;62.90;;;;;;5055263;28;20214;-71
2022/06/30 13:03:53;;;;;;;3.90;3.60;;;33.70;63.30;;;;;;5043554;28;20218;-71
2022/06/30 13:06:19;;;;;;;4.28;4.07;;;33.80;63.30;;;;;;5047347;28;20218;-72
2022/06/30 13:08:46;;;;;;;4.55;4.15;;;33.80;63.00;;;;;;5030978;28;20254;-71
2022/06/30 13:11:27;;;;;;;4.68;4.28;;;33.90;64.20;;;;;;5038129;28;20240;-71